Time;durP1;ratioP1;P1;durP2;ratioP2;P2;SDS_P1;SDS_P2;PMS_P1;PMS_P2;Temp;Humidity;BMP_temperature;BMP_pressure;BME280_temperature;BME280_humidity;BME280_pressure;Samples;Min_cycle;Max_cycle;Signal;HPM_P1;HPM_P2
2023/07/04 00:00:13;;;;;;;10.38;4.30;;;;;;;-145.63;37.76;38891.28;5074137;28;20471;-67
2023/07/04 00:02:39;;;;;;;10.13;4.28;;;;;;;-145.63;37.95;38859.97;5080530;28;20099;-69
2023/07/04 00:05:06;;;;;;;8.05;4.30;;;;;;;-145.63;37.69;38881.50;5067322;28;20033;-69
2023/07/04 00:07:31;;;;;;;7.72;4.28;;;;;;;-145.63;38.28;38865.84;5044861;28;20026;-68
2023/07/04 00:09:59;;;;;;;6.25;4.22;;;;;;;-145.63;37.94;38873.66;5075632;28;20066;-69
2023/07/04 00:12:25;;;;;;;7.15;4.35;;;;;;;-145.63;38.75;38887.34;5072769;28;20320;-68
2023/07/04 00:14:50;;;;;;;6.70;4.65;;;;;;;-145.63;38.22;38877.56;5071077;28;20020;-69
2023/07/04 00:17:16;;;;;;;8.63;4.72;;;;;;;-145.63;38.27;38885.41;5069684;28;20318;-69
2023/07/04 00:19:41;;;;;;;7.95;4.07;;;;;;;-145.63;38.52;38893.22;5065137;28;20305;-69
2023/07/04 00:22:10;;;;;;;5.85;3.90;;;;;;;-145.63;38.79;38891.28;5081392;28;20113;-68
2023/07/04 00:24:37;;;;;;;9.88;5.07;;;;;;;-145.63;38.59;38885.41;5072436;28;20032;-68
2023/07/04 00:27:03;;;;;;;7.72;4.78;;;;;;;-145.63;39.34;38924.50;5072258;28;20025;-69
2023/07/04 00:29:29;;;;;;;9.43;5.05;;;;;;;-145.63;39.39;38914.72;5081427;28;20028;-66
2023/07/04 00:31:55;;;;;;;6.57;4.70;;;;;;;-145.63;39.52;38685.94;5064565;28;20100;-67
2023/07/04 00:34:21;;;;;;;8.45;4.85;;;;;;;-145.63;39.87;38914.72;5066236;28;20325;-68
2023/07/04 00:36:47;;;;;;;9.63;5.38;;;;;;;-145.63;40.51;38918.66;5063941;28;20310;-67
2023/07/04 00:39:12;;;;;;;7.97;4.90;;;;;;;-145.63;40.79;38942.13;5072955;28;20032;-67
2023/07/04 00:41:41;;;;;;;8.75;5.25;;;;;;;-145.63;40.93;38926.47;5067684;28;20040;-68
2023/07/04 00:44:20;;;;;;;8.60;4.70;;;;;;;-145.63;40.52;38971.44;5064208;28;20052;-69
2023/07/04 00:46:56;;;;;;;9.48;4.88;;;;;;;-145.63;40.66;38926.47;5044063;28;20386;-68
2023/07/04 00:49:37;;;;;;;5.88;4.32;;;;;;;-145.63;41.25;38951.88;5081065;28;20142;-67
2023/07/04 00:52:09;;;;;;;7.43;5.28;;;;;;;-145.63;40.99;38922.56;5068454;28;20025;-68
2023/07/04 00:54:40;;;;;;;5.78;4.38;;;;;;;-145.63;41.80;38601.84;5064193;28;20029;-69
2023/07/04 00:57:07;;;;;;;8.13;4.50;;;;;;;-145.63;41.66;38963.63;5063980;28;20266;-68
2023/07/04 00:59:38;;;;;;;7.40;4.50;;;;;;;-145.63;41.75;38957.75;5066986;28;20289;-67
2023/07/04 01:02:04;;;;;;;11.13;5.30;;;;;;;-145.63;41.82;38975.34;5084239;28;20026;-67
2023/07/04 01:04:32;;;;;;;8.02;5.10;;;;;;;-145.63;41.99;38949.94;5064355;28;20448;-67
2023/07/04 01:07:15;;;;;;;7.00;4.75;;;;;;;-145.63;41.96;38926.47;5078509;28;20035;-68
2023/07/04 01:09:45;;;;;;;6.97;4.43;;;;;;;-145.63;41.88;38947.97;5070961;28;20043;-68
2023/07/04 01:12:13;;;;;;;6.15;4.70;;;;;;;-145.63;42.07;38989.03;5072503;28;20024;-67
2023/07/04 01:14:39;;;;;;;6.70;5.13;;;;;;;-145.63;42.07;38987.09;5079735;28;20343;-67
2023/07/04 01:17:06;;;;;;;10.00;5.53;;;;;;;-145.63;42.37;38985.13;5062304;28;20032;-68
2023/07/04 01:19:35;;;;;;;5.82;4.15;;;;;;;-145.63;42.09;38969.50;5081867;28;20032;-68
2023/07/04 01:22:15;;;;;;;11.90;4.38;;;;;;;-145.63;42.50;38946.03;5067120;28;20028;-67
2023/07/04 01:25:06;;;;;;;7.10;5.20;;;;;;;-145.63;42.94;39000.78;5061269;28;20025;-67
2023/07/04 01:27:32;;;;;;;8.40;4.60;;;;;;;-145.63;42.76;38959.72;5055565;28;20049;-68
2023/07/04 01:30:03;;;;;;;10.60;4.97;;;;;;;-145.63;42.86;38989.03;5069581;28;20091;-68
2023/07/04 01:32:29;;;;;;;7.63;4.68;;;;;;;-145.63;42.78;38953.84;5081199;28;20308;-67
2023/07/04 01:34:58;;;;;;;6.53;4.57;;;;;;;-145.63;42.87;38963.63;5063115;28;20100;-67
2023/07/04 01:37:25;;;;;;;9.02;4.55;;;;;;;-145.63;43.28;38979.28;5081357;28;20028;-67
2023/07/04 01:39:50;;;;;;;9.32;5.03;;;;;;;-145.63;42.80;38996.88;5069098;28;20024;-67
2023/07/04 01:42:18;;;;;;;6.57;4.82;;;;;;;-145.63;43.14;38989.03;5072126;28;20036;-67
2023/07/04 01:44:44;;;;;;;8.07;5.10;;;;;;;-145.63;43.00;38957.75;5079081;28;20036;-68
2023/07/04 01:47:09;;;;;;;7.32;4.85;;;;;;;-145.63;43.25;38951.88;5063115;28;20091;-67
2023/07/04 01:49:35;;;;;;;6.88;4.53;;;;;;;-145.63;42.79;38992.97;5063285;28;20021;-67
2023/07/04 01:52:00;;;;;;;8.05;5.22;;;;;;;-145.63;42.43;38992.97;5078046;28;20039;-66
2023/07/04 01:54:26;;;;;;;9.90;5.10;;;;;;;-145.63;42.63;38934.28;5072969;28;20031;-67
2023/07/04 01:56:52;;;;;;;11.75;5.60;;;;;;;-145.63;42.58;38969.50;5065606;28;20099;-68
2023/07/04 01:59:19;;;;;;;12.75;4.68;;;;;;;-145.63;42.66;38940.16;5063838;28;20084;-68
2023/07/04 02:01:44;;;;;;;9.48;4.90;;;;;;;-145.63;42.77;38973.41;5083032;28;20104;-67
2023/07/04 02:04:10;;;;;;;10.93;5.47;;;;;;;-145.63;42.81;38936.25;5065989;28;20029;-67
2023/07/04 02:06:35;;;;;;;8.23;5.22;;;;;;;-145.63;42.92;38947.97;5074218;28;20085;-67
2023/07/04 02:09:01;;;;;;;9.32;4.82;;;;;;;-145.63;42.30;38965.56;5076681;28;20044;-68
2023/07/04 02:11:27;;;;;;;8.10;4.80;;;;;;;-145.63;42.05;38494.31;5064606;28;20032;-68
2023/07/04 02:13:52;;;;;;;13.43;5.35;;;;;;;-145.63;42.37;38947.97;5082641;28;20313;-68
2023/07/04 02:16:18;;;;;;;11.10;5.40;;;;;;;-145.63;41.97;38928.44;5068947;28;20048;-66
2023/07/04 02:18:43;;;;;;;7.47;5.00;;;;;;;-145.63;42.46;38938.19;5079079;28;20256;-67
2023/07/04 02:21:29;;;;;;;9.45;5.68;;;;;;;-145.63;42.21;38942.13;5075731;28;20210;-67
2023/07/04 02:23:55;;;;;;;11.50;5.15;;;;;;;-145.63;41.83;38746.56;5070616;28;20032;-67
2023/07/04 02:26:20;;;;;;;9.02;4.88;;;;;;;-145.63;42.11;38940.16;5067616;28;20045;-69
2023/07/04 02:28:46;;;;;;;9.75;5.18;;;;;;;-145.63;41.87;38901.03;5086865;28;20031;-67
2023/07/04 02:31:13;;;;;;;10.55;4.88;;;;;;;-145.63;42.03;38967.53;5070980;28;20037;-67
2023/07/04 02:33:39;;;;;;;9.07;4.45;;;;;;;-145.63;41.74;38928.44;5076849;28;20194;-67
2023/07/04 02:36:06;;;;;;;8.70;4.82;;;;;;;-145.63;42.06;38930.38;5080210;28;20040;-67
2023/07/04 02:38:32;;;;;;;9.27;4.60;;;;;;;-145.63;42.09;38934.28;5068778;28;20120;-67
2023/07/04 02:40:58;;;;;;;9.80;5.00;;;;;;;-145.63;42.07;38922.56;5075988;28;20021;-67
2023/07/04 02:43:23;;;;;;;10.05;4.88;;;;;;;-145.63;41.86;38926.47;5068736;28;20029;-67
2023/07/04 02:45:49;;;;;;;9.10;5.03;;;;;;;-145.63;41.68;38899.09;5079100;28;20051;-68
2023/07/04 02:48:15;;;;;;;10.75;4.93;;;;;;;-145.63;41.42;38897.13;5078342;28;20226;-68
2023/07/04 02:50:40;;;;;;;10.23;5.55;;;;;;;-145.63;40.61;38883.44;5066483;28;20036;-66
2023/07/04 02:53:06;;;;;;;14.32;6.15;;;;;;;-145.63;40.59;38869.75;5066077;28;20310;-67
2023/07/04 02:55:31;;;;;;;12.02;5.35;;;;;;;-145.63;39.37;38889.31;5066072;28;20025;-67
2023/07/04 02:57:57;;;;;;;12.65;5.75;;;;;;;-145.63;39.67;38883.44;5080077;28;20074;-65
2023/07/04 03:00:23;;;;;;;15.45;5.78;;;;;;;-145.63;39.44;38871.72;5077189;28;20029;-67
2023/07/04 03:02:48;;;;;;;10.82;5.68;;;;;;;-145.63;38.67;38828.69;5066217;28;20048;-67
2023/07/04 03:05:14;;;;;;;14.77;5.90;;;;;;;-145.63;38.46;38844.34;5066441;28;20037;-68
2023/07/04 03:07:39;;;;;;;15.40;5.60;;;;;;;-145.63;38.01;38850.19;5065681;28;20202;-68
2023/07/04 03:10:06;;;;;;;10.70;5.70;;;;;;;-145.63;38.18;38838.47;5079699;28;20036;-68
2023/07/04 03:12:31;;;;;;;11.95;5.45;;;;;;;-145.63;38.15;38793.50;5074788;28;20025;-67
2023/07/04 03:14:57;;;;;;;10.35;5.80;;;;;;;-145.63;37.76;38801.31;5070039;28;20051;-67
2023/07/04 03:17:22;;;;;;;14.07;5.70;;;;;;;-145.63;37.43;38785.66;5084271;28;20071;-67
2023/07/04 03:19:48;;;;;;;11.35;5.63;;;;;;;-145.63;37.12;38789.59;5064612;28;20122;-68
2023/07/04 03:22:14;;;;;;;11.82;5.55;;;;;;;-145.63;37.50;38713.31;5080357;28;20036;-67
2023/07/04 03:24:39;;;;;;;12.43;5.32;;;;;;;-145.63;37.18;38695.72;5073636;28;20249;-68
2023/07/04 03:27:05;;;;;;;12.55;5.80;;;;;;;-145.63;37.11;38680.06;5069480;28;20240;-68
2023/07/04 03:29:30;;;;;;;15.25;5.40;;;;;;;-145.63;36.46;38709.41;5083143;28;20067;-68
2023/07/04 03:31:56;;;;;;;13.75;5.93;;;;;;;-145.63;36.61;38670.28;5063510;28;20025;-68
2023/07/04 03:34:21;;;;;;;11.40;5.55;;;;;;;-145.63;36.59;38687.91;5081437;28;20028;-68
2023/07/04 03:36:47;;;;;;;16.95;6.20;;;;;;;-145.63;36.42;38678.13;5072254;28;20025;-69
2023/07/04 03:39:12;;;;;;;11.77;5.38;;;;;;;-145.63;36.38;38672.25;5064430;28;20226;-69
2023/07/04 03:41:38;;;;;;;12.50;5.60;;;;;;;-145.63;36.70;38619.47;5064232;28;20021;-68
2023/07/04 03:44:04;;;;;;;13.88;4.97;;;;;;;-145.63;36.06;38619.47;5063219;28;20240;-68
2023/07/04 03:46:29;;;;;;;9.68;5.63;;;;;;;-145.63;36.21;38644.88;5081869;28;20085;-66
2023/07/04 03:48:55;;;;;;;11.38;5.30;;;;;;;-145.63;36.02;38625.31;5069795;28;20040;-67
2023/07/04 03:51:21;;;;;;;8.18;4.95;;;;;;;-145.63;35.79;38594.03;5063894;28;20025;-67
2023/07/04 03:53:48;;;;;;;11.50;5.20;;;;;;;-145.63;35.27;38637.06;5062587;28;20060;-68
2023/07/04 03:56:14;;;;;;;12.30;5.53;;;;;;;-145.63;35.46;38592.09;5064140;28;20318;-67
2023/07/04 03:58:40;;;;;;;11.60;4.90;;;;;;;-145.63;35.10;38584.25;5063590;28;20054;-67
2023/07/04 04:01:06;;;;;;;10.30;4.93;;;;;;;-145.63;35.46;38621.41;5077675;28;20127;-67
2023/07/04 04:03:37;;;;;;;14.52;5.90;;;;;;;-145.63;35.32;38572.53;5074021;28;20089;-67
2023/07/04 04:06:08;;;;;;;9.60;5.22;;;;;;;-145.63;34.45;38584.25;5063612;28;20092;-68
2023/07/04 04:08:34;;;;;;;11.02;5.03;;;;;;;-145.63;34.60;38551.03;5021110;28;1270172;-68
2023/07/04 04:11:00;;;;;;;10.63;4.93;;;;;;;-145.63;34.51;38562.75;5085063;28;20030;-66
2023/07/04 04:13:26;;;;;;;7.57;4.78;;;;;;;-145.63;33.55;38552.97;5067436;28;20044;-66
2023/07/04 04:15:53;;;;;;;9.20;4.75;;;;;;;-145.63;33.93;38556.88;5076201;28;20091;-68
2023/07/04 04:18:18;;;;;;;8.32;3.80;;;;;;;-145.63;33.59;38568.63;5064591;28;20029;-68
2023/07/04 04:20:44;;;;;;;15.77;4.63;;;;;;;-145.63;33.53;38504.09;5063289;28;20059;-67
2023/07/04 04:23:10;;;;;;;16.25;4.18;;;;;;;-145.63;32.72;38390.69;5064371;28;20035;-67
2023/07/04 04:25:38;;;;;;;9.25;4.15;;;;;;;-145.63;32.46;38539.28;5068237;28;20049;-67
2023/07/04 04:28:06;;;;;;;10.50;4.38;;;;;;;-145.63;33.31;38492.34;5078241;28;20205;-67
2023/07/04 04:30:32;;;;;;;10.98;4.20;;;;;;;-145.63;32.40;38457.16;5071756;28;20024;-67
2023/07/04 04:33:02;;;;;;;6.97;3.95;;;;;;;-145.63;32.83;38492.34;5053538;28;20232;-67
2023/07/04 04:35:29;;;;;;;9.52;4.25;;;;;;;-145.63;32.44;38453.25;5083861;28;20040;-68
2023/07/04 04:37:55;;;;;;;8.93;4.78;;;;;;;-145.63;32.32;38414.16;5063551;28;20032;-68
2023/07/04 04:40:21;;;;;;;6.20;4.10;;;;;;;-145.63;32.08;38435.66;5073383;28;20040;-68
2023/07/04 04:42:47;;;;;;;8.57;4.07;;;;;;;-145.63;32.53;38418.06;5056596;28;20301;-68
2023/07/04 04:45:14;;;;;;;7.40;4.32;;;;;;;-145.63;32.26;38416.09;5070512;28;20128;-67
2023/07/04 04:47:39;;;;;;;9.45;4.45;;;;;;;-145.63;32.02;38384.81;5081475;28;20031;-68
2023/07/04 04:50:06;;;;;;;10.68;4.63;;;;;;;-145.63;31.48;38377.00;5063429;28;20024;-68
2023/07/04 04:52:32;;;;;;;8.23;4.28;;;;;;;-145.63;31.45;37501.13;5078239;28;20049;-68
2023/07/04 04:55:01;;;;;;;10.55;4.57;;;;;;;-145.63;31.21;38429.78;5070688;28;20021;-68
2023/07/04 04:57:27;;;;;;;9.10;4.78;;;;;;;-145.63;30.53;38357.44;5072087;28;20021;-68
2023/07/04 04:59:56;;;;;;;10.32;4.35;;;;;;;-145.63;30.31;38330.06;5074905;28;20345;-69
2023/07/04 05:02:23;;;;;;;6.40;4.25;;;;;;;-145.63;30.10;38300.75;5064145;28;20027;-69
2023/07/04 05:04:48;;;;;;;7.57;4.05;;;;;;;-145.63;30.16;38292.91;5063768;28;20033;-68
2023/07/04 05:07:14;;;;;;;7.50;3.50;;;;;;;-145.63;29.72;38312.47;5063938;28;20028;-67
2023/07/04 05:09:40;;;;;;;9.57;4.72;;;;;;;-145.63;29.63;38257.72;5073697;28;20048;-69
2023/07/04 05:12:05;;;;;;;7.63;4.00;;;;;;;-145.63;29.24;38292.91;5078372;28;20029;-69
2023/07/04 05:14:31;;;;;;;10.82;4.30;;;;;;;-145.63;28.88;38281.19;5063456;28;20213;-68
2023/07/04 05:16:56;;;;;;;9.43;4.32;;;;;;;-145.63;29.24;38236.22;5063601;28;20021;-68
2023/07/04 05:19:22;;;;;;;11.48;3.85;;;;;;;-145.63;28.94;38238.16;5079501;28;20024;-68
2023/07/04 05:21:48;;;;;;;9.45;4.05;;;;;;;-145.63;28.15;38191.25;5072252;28;20044;-68
2023/07/04 05:24:14;;;;;;;9.88;4.40;;;;;;;-145.63;27.74;38199.06;5068830;28;20029;-69
2023/07/04 05:26:40;;;;;;;10.10;4.15;;;;;;;-145.63;28.24;38202.97;5065023;28;20084;-69
2023/07/04 05:29:08;;;;;;;6.90;4.22;;;;;;;-145.63;29.16;38193.19;5081961;28;20046;-67
2023/07/04 05:31:34;;;;;;;14.65;4.40;;;;;;;-145.63;28.33;38187.34;5065994;28;20036;-67
2023/07/04 05:34:00;;;;;;;11.68;4.38;;;;;;;-145.63;27.50;38195.16;5075053;28;20070;-68
2023/07/04 05:36:28;;;;;;;9.85;4.28;;;;;;;-145.63;28.00;38220.56;5075073;28;20028;-68
2023/07/04 05:38:59;;;;;;;13.18;5.05;;;;;;;-145.63;28.29;38183.44;5066995;28;20028;-68
2023/07/04 05:41:27;;;;;;;6.20;3.97;;;;;;;-145.63;27.91;38171.69;5068778;28;20036;-68
2023/07/04 05:43:57;;;;;;;8.70;4.40;;;;;;;-145.63;28.00;38148.22;5083141;28;20024;-68
2023/07/04 05:46:23;;;;;;;10.57;4.53;;;;;;;-145.63;27.97;38159.97;5067334;28;20036;-67
2023/07/04 05:48:48;;;;;;;10.00;4.18;;;;;;;-145.63;27.14;38202.97;5073777;28;20020;-68
2023/07/04 05:51:16;;;;;;;8.85;4.25;;;;;;;-145.63;27.74;38202.97;5076737;28;20100;-67
2023/07/04 05:53:43;;;;;;;11.20;5.13;;;;;;;-145.63;28.38;38183.44;5064622;28;20032;-68
2023/07/04 05:56:28;;;;;;;8.48;4.47;;;;;;;-145.63;28.25;38191.25;5081845;28;20039;-67
2023/07/04 05:58:58;;;;;;;7.25;4.40;;;;;;;-145.63;27.60;38163.88;5063021;28;20029;-69
2023/07/04 06:01:32;;;;;;;9.45;4.20;;;;;;;-145.63;27.35;38128.69;5077174;28;20028;-67
2023/07/04 06:03:59;;;;;;;13.10;4.88;;;;;;;-145.63;28.10;38152.16;5070819;28;20024;-68
2023/07/04 06:06:39;;;;;;;6.93;4.03;;;;;;;-145.63;26.65;38113.03;5070143;28;20101;-68
2023/07/04 06:09:08;;;;;;;9.32;4.00;;;;;;;-145.63;27.53;38038.75;5077699;28;20037;-66
2023/07/04 06:11:36;;;;;;;13.02;4.63;;;;;;;-145.63;27.41;38150.19;5062929;28;20085;-69
2023/07/04 06:14:02;;;;;;;13.43;4.93;;;;;;;-145.63;27.20;38093.50;5048193;28;20128;-67
2023/07/04 06:16:28;;;;;;;12.02;4.80;;;;;;;-145.63;27.60;38048.53;5075089;28;20043;-68
2023/07/04 06:18:54;;;;;;;8.10;4.60;;;;;;;-145.63;27.58;38034.84;5071106;28;20056;-66
2023/07/04 06:21:22;;;;;;;14.23;4.82;;;;;;;-145.63;27.10;38017.25;5069512;28;20066;-67
2023/07/04 06:23:49;;;;;;;7.35;4.75;;;;;;;-145.63;26.85;38015.28;5080363;28;20104;-67
2023/07/04 06:26:15;;;;;;;11.55;4.82;;;;;;;-145.63;26.93;37937.09;5055205;28;20037;-66
2023/07/04 06:28:42;;;;;;;27.70;6.00;;;;;;;-145.63;27.87;37966.41;5060578;28;20321;-67
2023/07/04 06:31:13;;;;;;;10.07;4.75;;;;;;;-145.63;27.94;37921.44;5075691;28;20108;-68
2023/07/04 06:33:39;;;;;;;;;;;;;;;-145.63;26.52;37993.78;5072621;28;20032;-67
2023/07/04 06:36:09;;;;;;;7.70;4.55;;;;;;;-145.63;27.10;37933.16;5062338;28;19909;-68
2023/07/04 06:38:35;;;;;;;12.13;5.50;;;;;;;-145.63;27.10;37944.91;5063101;28;20029;-68
2023/07/04 06:41:03;;;;;;;12.18;4.85;;;;;;;-145.63;27.16;37937.09;5071514;28;20032;-68
2023/07/04 06:43:30;;;;;;;7.03;4.40;;;;;;;-145.63;27.42;37905.81;5061764;28;20278;-68
2023/07/04 06:45:56;;;;;;;12.13;5.50;;;;;;;-145.63;27.88;37899.94;5073972;28;20051;-66
2023/07/04 06:48:23;;;;;;;14.38;5.05;;;;;;;-145.63;26.48;37923.41;5075225;28;20221;-69
2023/07/04 06:51:01;;;;;;;8.63;4.60;;;;;;;-145.63;25.25;37939.03;5064415;28;20066;-67
2023/07/04 06:53:28;;;;;;;12.60;4.93;;;;;;;-145.63;26.12;37870.59;5082475;28;20422;-68
2023/07/04 06:56:06;;;;;;;10.20;4.80;;;;;;;-145.63;25.46;37901.88;5062829;28;20036;-68
2023/07/04 06:58:35;;;;;;;10.73;4.88;;;;;;;-145.63;25.88;37835.41;5078707;28;20078;-68
2023/07/04 07:01:04;;;;;;;9.48;4.97;;;;;;;-145.63;25.67;37823.69;5070982;28;20036;-67
2023/07/04 07:03:30;;;;;;;9.88;5.03;;;;;;;-145.63;26.10;37825.66;5065957;28;20029;-68
2023/07/04 07:05:55;;;;;;;9.93;4.82;;;;;;;-145.63;25.63;37815.88;5064594;28;20214;-67
2023/07/04 07:08:21;;;;;;;9.75;4.63;;;;;;;-145.63;25.95;37778.72;5066295;28;20132;-67
2023/07/04 07:10:52;;;;;;;12.20;4.88;;;;;;;-145.63;25.13;37790.44;5083943;28;20039;-68
2023/07/04 07:13:17;;;;;;;8.68;4.07;;;;;;;-145.63;25.41;37761.13;5071611;28;20037;-67
2023/07/04 07:15:43;;;;;;;12.00;5.07;;;;;;;-145.63;25.23;37808.06;5065366;28;20190;-68
2023/07/04 07:18:08;;;;;;;13.23;4.80;;;;;;;-145.63;25.13;37761.13;5070131;28;20333;-68
2023/07/04 07:20:34;;;;;;;10.32;5.05;;;;;;;-145.63;25.33;37677.06;5086355;28;20062;-68
2023/07/04 07:22:59;;;;;;;9.48;4.95;;;;;;;-145.63;24.71;37680.97;5065599;28;20029;-67
2023/07/04 07:25:25;;;;;;;8.02;4.85;;;;;;;-145.63;23.28;37761.13;5067472;28;20025;-69
2023/07/04 07:27:52;;;;;;;11.88;4.90;;;;;;;-145.63;23.59;37780.69;5075818;28;20221;-67
2023/07/04 07:30:17;;;;;;;8.93;4.50;;;;;;;-145.63;24.71;37765.03;5079795;28;20028;-66
2023/07/04 07:32:43;;;;;;;10.18;5.15;;;;;;;-145.63;24.71;37735.72;5066252;28;20056;-66
2023/07/04 07:35:09;;;;;;;7.80;4.57;;;;;;;-145.63;24.45;37737.66;5081422;28;20029;-67
2023/07/04 07:37:35;;;;;;;8.77;4.72;;;;;;;-145.63;23.98;37810.00;5073509;28;20038;-70
2023/07/04 07:40:03;;;;;;;9.70;5.15;;;;;;;-145.63;24.60;37767.00;5057663;28;20024;-68
2023/07/04 07:42:32;;;;;;;11.48;4.90;;;;;;;-145.63;24.32;37776.78;5060881;28;20079;-68
2023/07/04 07:44:58;;;;;;;9.15;4.82;;;;;;;-145.63;24.60;37768.94;5059903;28;20087;-69
2023/07/04 07:47:23;;;;;;;9.90;5.18;;;;;;;-145.63;23.37;37841.28;5055104;28;20312;-68
2023/07/04 07:49:49;;;;;;;11.60;5.10;;;;;;;-145.63;24.36;37790.44;5050699;28;20036;-66
2023/07/04 07:52:15;;;;;;;7.05;4.45;;;;;;;-145.63;24.34;37811.97;5056431;28;20088;-67
2023/07/04 07:54:40;;;;;;;13.23;5.22;;;;;;;-145.63;24.41;37772.84;5057715;28;20032;-66
2023/07/04 07:57:06;;;;;;;12.57;5.28;;;;;;;-145.63;25.25;37725.94;5057373;28;20029;-67
2023/07/04 07:59:32;;;;;;;13.57;5.05;;;;;;;-145.63;24.49;37776.78;5060833;28;20229;-65
2023/07/04 08:01:58;;;;;;;11.57;4.97;;;;;;;-145.63;24.92;37780.69;5056466;28;20044;-65
2023/07/04 08:04:25;;;;;;;13.77;5.43;;;;;;;-145.63;24.75;37784.59;5060333;28;20041;-65
2023/07/04 08:06:51;;;;;;;8.57;4.65;;;;;;;-145.63;24.75;37802.19;5060524;28;20029;-66
2023/07/04 08:09:18;;;;;;;8.80;4.95;;;;;;;-145.63;25.11;37839.31;5056675;28;20059;-66
2023/07/04 08:11:45;;;;;;;8.02;5.05;;;;;;;-145.63;25.58;37876.47;5055319;28;20066;-67
2023/07/04 08:14:13;;;;;;;6.97;4.75;;;;;;;-145.63;25.29;37680.97;5048031;28;20041;-67
2023/07/04 08:16:45;;;;;;;8.60;4.90;;;;;;;-145.63;24.36;37925.34;5077690;28;20233;-67
2023/07/04 08:19:12;;;;;;;8.57;4.93;;;;;;;-145.63;24.46;37933.16;5060067;28;20029;-66
2023/07/04 08:21:37;;;;;;;8.57;4.75;;;;;;;-145.63;24.98;37939.03;5059813;28;20040;-68
2023/07/04 08:24:10;;;;;;;8.80;4.65;;;;;;;-145.63;24.81;37921.44;5061976;28;20029;-68
2023/07/04 08:26:36;;;;;;;11.05;4.70;;;;;;;-145.63;25.24;37944.91;5063994;28;20035;-65
2023/07/04 08:29:02;;;;;;;8.23;4.75;;;;;;;-145.63;25.41;37864.75;5059401;28;20024;-64
2023/07/04 08:31:28;;;;;;;11.88;5.38;;;;;;;-145.63;25.75;37903.84;5059715;28;20095;-66
2023/07/04 08:33:54;;;;;;;8.88;4.78;;;;;;;-145.63;25.36;37884.28;5068576;28;20028;-64
2023/07/04 08:36:20;;;;;;;10.05;5.50;;;;;;;-145.63;25.41;37829.56;5057718;28;20028;-65
2023/07/04 08:38:48;;;;;;;9.70;5.32;;;;;;;-145.63;24.94;37772.84;5059382;28;20036;-65
2023/07/04 08:41:27;;;;;;;7.95;5.32;;;;;;;-145.63;24.96;37751.34;5063507;28;20036;-64
2023/07/04 08:43:58;;;;;;;7.65;5.22;;;;;;;-145.63;24.94;37659.47;5056819;28;20345;-65
2023/07/04 08:46:24;;;;;;;11.40;5.17;;;;;;;-145.63;24.58;37634.06;5056747;28;20047;-65
2023/07/04 08:48:49;;;;;;;9.23;4.95;;;;;;;-145.63;24.77;37671.19;5056728;28;20465;-66
2023/07/04 08:51:28;;;;;;;8.02;4.97;;;;;;;-145.63;24.44;37593.00;5056945;28;20024;-66
2023/07/04 08:53:58;;;;;;;7.60;4.75;;;;;;;-145.63;24.48;37614.50;5058928;28;20123;-65
2023/07/04 08:56:34;;;;;;;9.23;4.50;;;;;;;-145.63;23.35;37716.16;5052173;28;20035;-67
2023/07/04 08:59:28;;;;;;;7.82;5.22;;;;;;;-145.63;24.03;37747.44;5055091;28;20029;-66
2023/07/04 09:02:28;;;;;;;8.75;5.63;;;;;;;-145.63;24.69;37712.25;5060545;28;20344;-66
2023/07/04 09:04:54;;;;;;;8.15;5.15;;;;;;;-145.63;24.82;37776.78;5045237;28;20036;-66
2023/07/04 09:07:29;;;;;;;12.27;4.90;;;;;;;-145.63;24.19;37755.25;5058413;28;20035;-65
2023/07/04 09:10:10;;;;;;;9.05;5.32;;;;;;;-145.63;24.71;37747.44;5058321;28;20065;-66
2023/07/04 09:12:37;;;;;;;9.68;5.30;;;;;;;-145.63;24.87;37694.66;5062295;28;20037;-67
2023/07/04 09:15:12;;;;;;;7.75;4.60;;;;;;;-145.63;23.95;37639.91;5066236;28;20032;-66
2023/07/04 09:17:45;;;;;;;11.35;4.90;;;;;;;-145.63;23.47;37589.09;5083446;28;20031;-66
2023/07/04 09:20:10;;;;;;;10.13;5.00;;;;;;;-145.63;22.25;37553.91;5043739;28;20035;-66
2023/07/04 09:22:36;;;;;;;8.30;4.38;;;;;;;-145.63;23.37;37485.50;5077775;28;20024;-70
2023/07/04 09:25:06;;;;;;;10.93;4.75;;;;;;;-145.63;23.16;37475.72;5072214;28;20095;-64
2023/07/04 09:27:33;;;;;;;9.48;4.45;;;;;;;-145.63;23.62;37508.94;5057810;28;20131;-64
2023/07/04 09:30:00;;;;;;;5.22;4.43;;;;;;;-145.63;23.69;37487.44;5064763;28;20033;-66
2023/07/04 09:32:25;;;;;;;7.88;4.72;;;;;;;-145.63;23.38;37469.84;5076823;28;20032;-65
2023/07/04 09:34:55;;;;;;;7.57;4.88;;;;;;;-145.63;23.52;37522.63;5058335;28;20210;-65
2023/07/04 09:37:23;;;;;;;11.73;4.60;;;;;;;-145.63;23.04;37647.75;5058843;28;20036;-65
2023/07/04 09:39:55;;;;;;;10.57;5.43;;;;;;;-145.63;23.72;37624.28;5053291;28;20092;-65
2023/07/04 09:42:23;;;;;;;8.32;5.30;;;;;;;-145.63;23.91;37679.03;5053071;28;20043;-65
2023/07/04 09:44:53;;;;;;;9.90;5.18;;;;;;;-145.63;22.91;37559.78;5080535;28;20036;-65
2023/07/04 09:47:24;;;;;;;6.97;4.53;;;;;;;-145.63;23.18;37553.91;5054703;28;20025;-64
2023/07/04 09:50:24;;;;;;;7.22;5.22;;;;;;;-145.63;23.07;37393.59;5052989;28;20095;-65
2023/07/04 09:53:10;;;;;;;9.68;4.97;;;;;;;-145.63;22.39;37491.34;5056394;28;20111;-64
2023/07/04 09:55:38;;;;;;;12.48;4.93;;;;;;;-145.63;23.07;37495.25;5058203;28;20033;-64
2023/07/04 09:58:16;;;;;;;8.55;5.10;;;;;;;-145.63;22.40;37456.16;5067355;28;20053;-65
2023/07/04 10:00:44;;;;;;;7.47;4.43;;;;;;;-145.63;23.09;37403.38;5059424;28;20040;-63
2023/07/04 10:03:10;;;;;;;9.13;4.63;;;;;;;-145.63;23.23;37407.28;5054227;28;20035;-64
2023/07/04 10:05:37;;;;;;;8.50;5.65;;;;;;;-145.63;22.54;37360.38;5051384;28;20026;-64
2023/07/04 10:08:11;;;;;;;8.30;4.78;;;;;;;-145.63;21.30;37438.56;5055202;28;20131;-64
2023/07/04 10:10:43;;;;;;;6.10;4.82;;;;;;;-145.63;21.39;37452.25;5054040;28;20083;-66
2023/07/04 10:13:12;;;;;;;7.55;4.70;;;;;;;-145.63;22.15;37391.66;5053742;28;20285;-65
2023/07/04 10:15:41;;;;;;;7.43;4.57;;;;;;;-145.63;22.54;37352.56;5059716;28;20091;-65
2023/07/04 10:18:25;;;;;;;9.68;5.03;;;;;;;-145.63;22.34;37426.84;5055175;28;20022;-65
2023/07/04 10:20:54;;;;;;;6.88;4.72;;;;;;;-145.63;21.61;37331.06;5061217;28;20079;-65
2023/07/04 10:23:22;;;;;;;8.30;4.40;;;;;;;-145.63;21.92;37327.16;5065608;28;20057;-65
2023/07/04 10:25:49;;;;;;;8.35;4.90;;;;;;;-145.63;21.56;37288.06;5063322;28;20252;-65
2023/07/04 10:28:17;;;;;;;8.18;4.72;;;;;;;-145.63;21.75;37264.59;5042334;28;20288;-66
2023/07/04 10:30:55;;;;;;;6.88;4.65;;;;;;;-145.63;21.50;37340.84;5060740;28;20032;-66
2023/07/04 10:33:26;;;;;;;9.68;4.85;;;;;;;-145.63;21.71;37307.59;5061022;28;20025;-65
2023/07/04 10:35:52;;;;;;;9.00;5.20;;;;;;;-145.63;21.98;37280.22;5064275;28;20017;-64
2023/07/04 10:38:29;;;;;;;7.75;4.80;;;;;;;-145.63;20.86;37336.91;5067359;28;20032;-65
2023/07/04 10:40:57;;;;;;;9.00;4.75;;;;;;;-145.63;20.64;37307.59;5063429;28;20424;-65
2023/07/04 10:43:30;;;;;;;9.43;4.38;;;;;;;-145.63;21.24;37364.28;5067175;28;20032;-65
2023/07/04 10:45:58;;;;;;;8.20;4.75;;;;;;;-145.63;20.20;37391.66;5059785;28;20368;-64
2023/07/04 10:48:31;;;;;;;8.10;5.15;;;;;;;-145.63;20.90;37424.88;5061705;28;20268;-65
2023/07/04 10:51:06;;;;;;;6.93;4.70;;;;;;;-145.63;21.08;37389.69;5066371;28;20092;-66
2023/07/04 10:53:32;;;;;;;9.02;4.90;;;;;;;-145.63;20.75;37385.78;5080293;28;20024;-66
2023/07/04 10:56:07;;;;;;;9.13;5.05;;;;;;;-145.63;20.34;37411.19;5066297;28;20028;-66
2023/07/04 10:58:40;;;;;;;11.32;5.35;;;;;;;-145.63;21.07;37428.78;5078215;28;20032;-65
2023/07/04 11:01:26;;;;;;;10.05;4.68;;;;;;;-145.63;21.35;37395.56;5057174;28;20340;-66
2023/07/04 11:04:11;;;;;;;11.77;5.18;;;;;;;-145.63;21.44;37329.09;5057796;28;20063;-65
2023/07/04 11:06:43;;;;;;;10.95;4.68;;;;;;;-145.63;19.94;37340.84;5070312;28;20028;-65
2023/07/04 11:09:19;;;;;;;9.18;4.90;;;;;;;-145.63;20.13;37401.44;5083330;28;20373;-65
2023/07/04 11:11:50;;;;;;;12.95;5.28;;;;;;;-145.63;20.04;37473.75;5065951;28;20032;-64
2023/07/04 11:14:27;;;;;;;10.65;4.30;;;;;;;-145.63;20.30;37391.66;5086251;28;20058;-65
2023/07/04 11:16:55;;;;;;;9.48;4.68;;;;;;;-145.63;20.56;37415.13;5069473;28;20024;-65
2023/07/04 11:19:25;;;;;;;8.35;4.72;;;;;;;-145.63;20.10;37487.44;5078302;28;20051;-65